Main page
METAR-TAF:

METAR-TAF

Airports :

Naval Station Rota

Rota, Spain

latitude: 36-39N, longitude: 006-21W, elevation: 26 m

Current weather observation

The report was made 42 minutes ago, at 19:00 UTC
Wind 5 kt from the West
Temperature 14°C
Humidity 72%
Pressure 1022 hPa
Visibility 10 km or more
no clouds below 1500 m and no cumulonimbus

METAR: LERT 281900Z 26005KT CAVOK 14/09 Q1022 NOSIG

Time: 20:42 (19:42 UTC)

Forecast

The report was made 5 hours and 42 minutes ago, at 14:00 UTC
Forecast valid from 28 at 15 UTC to 29 at 15 UTC
Wind 10 kt from the West/Northwest
Visibility 10 km or more
no clouds below 1500 m and no cumulonimbus
Becoming
from 29 at 00 UTC to 29 at 02 UTC
Wind 2 kt from variable directions
Becoming
from 29 at 08 UTC to 29 at 10 UTC
Wind 10 kt from the Northwest

TAF: LERT 281400Z 2815/2915 29010KT CAVOK TX17/2914Z TN06/2906Z BECMG 2900/2902 VRB02KT BECMG 2908/2910 31010KT

Weather observations and forecasts of more than 4000 airports (METAR and TAF reports).

The available stations are represented by yellow and red dots on the map.

Hover mouse over dot to see the name of the station.

Then click to see weather observations and forecasts.

To change the map : click on the green buttons with a black cross to zoom in, on the green button with a dash to zoom out, or on the green arrows for adjacent maps.


METAR-TAF: